• Join FlightAware (Why Join?)
  • Login
  • US Flag 
04:53AM EST


 

Airport Tracker/Info


-or-


 

Live Flight TrackerFlight Track Log ✈ SLI230 ✈ 05-Jul-2014 ✈ MMMX / MEX - MMTC / TRC

Flight Track Log - Related Links

Times and Time Zones

All times are in EDT time to prevent confusion due to time zone crossing. See the SLI230 flight status page for this flight to view local times or setup timezone preferences in your user account.

Time Position Orientation Groundspeed Altitude Reporting Facility
EDT Latitude Longitude Course Direction KTS MPH feet Rate Location/Type
02:31PM 19.9449 -99.4152 328° Northwest  Level Estimated
02:32PM 20.0296 -99.4726 328° Northwest  Level Estimated
02:33PM 20.1142 -99.5300 328° Northwest  Level Estimated
02:34PM 20.1989 -99.5875 327° Northwest  Level Estimated
02:35PM 20.2835 -99.6451 327° Northwest  Level Estimated
02:36PM 20.3682 -99.7028 327° Northwest  Level Estimated
02:37PM 20.4528 -99.7605 327° Northwest  Level Estimated
02:38PM 20.5373 -99.8182 327° Northwest  Level Estimated
02:39PM 20.6219 -99.8761 327° Northwest  Level Estimated
02:40PM 20.7064 -99.9340 327° Northwest  Level Estimated
02:41PM 20.7910 -99.9919 327° Northwest  Level Estimated
02:42PM 20.8755 -100.0499 327° Northwest  Level Estimated
02:43PM 20.9600 -100.1080 327° Northwest  Level Estimated
02:44PM 21.0444 -100.1662 327° Northwest  Level Estimated
02:45PM 21.1289 -100.2244 327° Northwest  Level Estimated
02:46PM 21.2133 -100.2827 327° Northwest  Level Estimated
02:47PM 21.2977 -100.3411 327° Northwest  Level Estimated
02:48PM 21.3821 -100.3995 327° Northwest  Level Estimated
02:49PM 21.4665 -100.4580 327° Northwest  Level Estimated
02:50PM 21.5508 -100.5165 327° Northwest  Level Estimated
02:51PM 21.6352 -100.5752 327° Northwest  Level Estimated
02:52PM 21.7194 -100.6339 327° Northwest  Level Estimated
02:53PM 21.8037 -100.6926 327° Northwest  Level Estimated
02:54PM 21.8880 -100.7514 327° Northwest  Level Estimated
02:55PM 21.9722 -100.8104 327° Northwest  Level Estimated
02:56PM 22.0565 -100.8693 327° Northwest  Level Estimated
02:57PM 22.1407 -100.9284 327° Northwest  Level Estimated
02:58PM 22.2248 -100.9875 327° Northwest  Level Estimated
02:59PM 22.3090 -101.0467 327° Northwest  Level Estimated
03:00PM 22.3931 -101.1059 327° Northwest  Level Estimated
03:01PM 22.4773 -101.1653 327° Northwest  Level Estimated
03:02PM 22.5613 -101.2247 327° Northwest  Level Estimated
03:03PM 22.6454 -101.2841 327° Northwest  Level Estimated
03:04PM 22.7295 -101.3437 327° Northwest  Level Estimated
03:05PM 22.8135 -101.4033 327° Northwest  Level Estimated
03:06PM 22.8975 -101.4630 327° Northwest  Level Estimated
03:07PM 22.9815 -101.5228 327° Northwest  Level Estimated
03:08PM 23.0655 -101.5826 327° Northwest  Level Estimated
03:09PM 23.1494 -101.6425 327° Northwest  Level Estimated
03:10PM 23.2333 -101.7025 327° Northwest  Level Estimated
03:11PM 23.3172 -101.7626 327° Northwest  Level Estimated
03:12PM 23.4011 -101.8227 327° Northwest  Level Estimated
03:13PM 23.4849 -101.8829 327° Northwest  Level Estimated
03:14PM 23.5687 -101.9432 327° Northwest  Level Estimated
03:15PM 23.6525 -102.0036 327° Northwest  Level Estimated
03:16PM 23.7363 -102.0640 327° Northwest  Level Estimated
03:17PM 23.8201 -102.1246 327° Northwest  Level Estimated
03:18PM 23.9038 -102.1852 327° Northwest  Level Estimated
03:19PM 23.9875 -102.2458 326° Northwest  Level Estimated
03:20PM 24.0712 -102.3066 326° Northwest  Level Estimated
03:21PM 24.1548 -102.3674 326° Northwest  Level Estimated
03:22PM 24.2385 -102.4284 326° Northwest  Level Estimated
03:23PM 24.3221 -102.4894 326° Northwest  Level Estimated
03:24PM 24.4057 -102.5505 326° Northwest  Level Estimated
03:25PM 24.4892 -102.6116 326° Northwest  Level Estimated
03:26PM 24.5728 -102.6729 326° Northwest  Level Estimated
03:27PM 24.6563 -102.7342 326° Northwest  Level Estimated
03:28PM 24.7398 -102.7956 326° Northwest  Level Estimated
03:29PM 24.8232 -102.8571 326° Northwest  Level Estimated
03:30PM 24.9067 -102.9187 326° Northwest  Level Estimated
03:31PM 24.9901 -102.9803 326° Northwest  Level Estimated
03:32PM 25.0735 -103.0421 326° Northwest  Level Estimated
03:33PM 25.1568 -103.1039 326° Northwest  Level Estimated
03:34PM 25.2401 -103.1658 326° Northwest  Level Estimated
03:35PM 25.3235 -103.2278 326° Northwest  Level Estimated
03:36PM 25.4067 -103.2899 326° Northwest  Level Estimated
03:37PM 25.4900 -103.3520 326° Northwest  Level Estimated
03:38PM 25.5683 -103.4106 326° Northwest  Level Estimated
03:39PM 25.5683 -103.4106 North  Level Estimated
03:40PM 25.5683 -103.4106 North  Level Estimated
03:41PM 25.5683 -103.4106 North  Level Estimated
03:42PM 25.5683 -103.4106 North  Level Estimated
03:43PM 25.5683 -103.4106 North  Level Estimated
03:44PM 25.5683 -103.4106 North  Level Estimated
03:45PM 25.5683 -103.4106 North  Level Estimated
03:46PM 25.5683 -103.4106 North  Level Estimated
03:47PM 25.5683 -103.4106 North  Level Estimated
03:48PM 25.5683 -103.4106 North  Level Estimated
03:49PM 25.5683 -103.4106 North  Level Estimated
03:50PM 25.5683 -103.4106 North  Level Estimated
03:51PM 25.5683 -103.4106 North  Level Estimated
03:52PM 25.5683 -103.4106 North  Level Estimated
03:53PM 25.5683 -103.4106 North  Level Estimated
03:54PM 25.5683 -103.4106 North  Level Estimated